createdAt,value
2023-04-11T00:01:54.346Z,30.62
2023-04-11T00:04:22.922Z,32.65
2023-04-11T00:06:50.437Z,30.30
2023-04-11T00:09:18.005Z,32.13
2023-04-11T00:11:48.046Z,32.42
2023-04-11T00:14:15.472Z,34.67
2023-04-11T00:16:42.911Z,35.13
2023-04-11T00:19:10.704Z,31.67
2023-04-11T00:21:40.890Z,33.70
2023-04-11T00:24:08.407Z,31.80
2023-04-11T00:26:36.032Z,33.87
2023-04-11T00:29:03.540Z,33.72
2023-04-11T00:31:30.984Z,34.10
2023-04-11T00:33:58.895Z,35.35
2023-04-11T00:36:27.136Z,33.47
2023-04-11T00:39:35.250Z,31.65
2023-04-11T00:42:23.958Z,30.33
2023-04-11T00:45:36.713Z,32.55
2023-04-11T00:48:12.847Z,31.25
2023-04-11T00:50:41.895Z,35.40
2023-04-11T00:53:11.455Z,34.43
2023-04-11T00:55:39.411Z,31.67
2023-04-11T00:58:08.224Z,29.65
2023-04-11T01:00:35.680Z,27.70
2023-04-11T01:03:03.266Z,26.10
2023-04-11T01:05:33.330Z,27.58
2023-04-11T01:08:01.380Z,27.77
2023-04-11T01:10:30.901Z,32.60
2023-04-11T01:13:01.702Z,31.60
2023-04-11T01:15:29.245Z,30.90
2023-04-11T01:17:57.922Z,30.45
2023-04-11T01:20:26.452Z,32.08
2023-04-11T01:22:54.422Z,33.42
2023-04-11T01:25:22.501Z,34.42
2023-04-11T01:27:50.311Z,33.67
2023-04-11T01:30:17.823Z,34.30
2023-04-11T01:32:45.486Z,33.67
2023-04-11T01:35:13.602Z,33.45
2023-04-11T01:37:41.139Z,36.08
2023-04-11T01:40:09.567Z,35.33
2023-04-11T01:42:39.083Z,34.70
2023-04-11T01:45:07.448Z,36.70
2023-04-11T01:47:34.966Z,36.30
2023-04-11T01:50:02.700Z,37.65
2023-04-11T01:52:30.351Z,35.67
2023-04-11T01:54:57.805Z,32.73
2023-04-11T01:57:26.433Z,32.95
2023-04-11T01:59:53.867Z,31.92
2023-04-11T02:02:21.285Z,29.30
2023-04-11T02:04:49.007Z,25.70
2023-04-11T02:07:16.411Z,24.48
2023-04-11T02:09:43.831Z,23.50
2023-04-11T02:12:11.446Z,27.05
2023-04-11T02:14:42.365Z,31.00
2023-04-11T02:17:12.853Z,32.60
2023-04-11T02:19:45.615Z,33.03
2023-04-11T02:22:13.129Z,36.88
2023-04-11T02:24:41.073Z,34.92
2023-04-11T02:27:09.336Z,35.35
2023-04-11T02:29:36.775Z,37.35
2023-04-11T02:32:04.539Z,37.85
2023-04-11T02:34:32.086Z,35.53
2023-04-11T02:36:59.460Z,37.95
2023-04-11T02:39:27.828Z,37.35
2023-04-11T02:41:57.363Z,35.00
2023-04-11T02:44:26.328Z,37.60
2023-04-11T02:46:55.387Z,39.40
2023-04-11T02:49:23.117Z,37.67
2023-04-11T02:51:51.837Z,36.50
2023-04-11T02:54:19.608Z,39.20
2023-04-11T02:56:47.123Z,41.72
2023-04-11T02:59:14.542Z,43.80
2023-04-11T03:01:42.904Z,43.95
2023-04-11T03:04:10.600Z,48.58
2023-04-11T03:06:39.482Z,44.60
2023-04-11T03:09:07.255Z,43.42
2023-04-11T03:11:34.678Z,45.35
2023-04-11T03:14:02.919Z,45.15
2023-04-11T03:16:30.598Z,45.85
2023-04-11T03:18:58.739Z,44.15
2023-04-11T03:21:26.560Z,42.08
2023-04-11T03:23:54.440Z,43.40
2023-04-11T03:26:22.370Z,42.75
2023-04-11T03:28:49.901Z,41.40
2023-04-11T03:31:19.046Z,37.85
2023-04-11T03:33:47.000Z,37.33
2023-04-11T03:36:14.591Z,42.20
2023-04-11T03:38:42.459Z,37.88
2023-04-11T03:41:11.145Z,39.08
2023-04-11T03:43:38.927Z,39.20
2023-04-11T03:46:07.009Z,40.05
2023-04-11T03:48:35.277Z,39.50
2023-04-11T03:51:03.293Z,43.37
2023-04-11T03:53:31.882Z,56.30
2023-04-11T03:56:00.299Z,44.45
2023-04-11T03:58:28.795Z,42.03
2023-04-11T04:00:56.796Z,40.17
2023-04-11T04:03:24.973Z,41.08
2023-04-11T04:05:53.267Z,42.78
2023-04-11T04:08:22.775Z,43.60
2023-04-11T04:10:51.826Z,43.10
2023-04-11T04:13:19.417Z,43.70
2023-04-11T04:15:47.678Z,42.40
2023-04-11T04:18:16.398Z,42.25
2023-04-11T04:20:44.183Z,39.97
2023-04-11T04:23:14.213Z,38.53
2023-04-11T04:25:43.366Z,40.50
2023-04-11T04:28:11.617Z,40.88
2023-04-11T04:30:39.278Z,42.30
2023-04-11T04:33:12.214Z,39.17
2023-04-11T04:35:40.088Z,36.28
2023-04-11T04:38:08.859Z,36.38
2023-04-11T04:40:40.110Z,34.75
2023-04-11T04:43:11.582Z,34.00
2023-04-11T04:45:39.698Z,34.60
2023-04-11T04:48:07.771Z,36.83
2023-04-11T04:50:35.544Z,33.63
2023-04-11T04:53:02.941Z,31.83
2023-04-11T04:55:33.368Z,34.85
2023-04-11T04:58:01.173Z,30.00
2023-04-11T05:00:29.535Z,29.17
2023-04-11T05:02:58.669Z,32.25
2023-04-11T05:05:29.234Z,31.70
2023-04-11T05:07:57.278Z,34.80
2023-04-11T05:10:24.740Z,33.85
2023-04-11T05:12:53.600Z,32.15
2023-04-11T05:15:23.453Z,33.65
2023-04-11T05:17:50.898Z,32.50
2023-04-11T05:20:18.870Z,30.77
2023-04-11T05:22:48.878Z,31.08
2023-04-11T05:25:18.041Z,30.92
2023-04-11T05:27:46.144Z,30.58
2023-04-11T05:30:14.229Z,29.75
2023-04-11T05:32:42.990Z,31.58
2023-04-11T05:35:11.058Z,25.73
2023-04-11T05:37:39.889Z,29.00
2023-04-11T05:40:08.922Z,30.50
2023-04-11T05:42:36.353Z,27.92
2023-04-11T05:45:04.332Z,27.45
2023-04-11T05:47:32.274Z,26.80
2023-04-11T05:49:59.816Z,26.62
2023-04-11T05:52:27.565Z,26.23
2023-04-11T05:54:54.988Z,25.12
2023-04-11T05:57:23.581Z,29.33
2023-04-11T05:59:53.182Z,27.98
2023-04-11T06:02:21.241Z,31.23
2023-04-11T06:04:49.202Z,39.77
2023-04-11T06:07:16.725Z,61.55
2023-04-11T06:09:44.346Z,53.85
2023-04-11T06:12:12.002Z,35.40
2023-04-11T06:14:40.669Z,27.77
2023-04-11T06:17:08.236Z,27.30
2023-04-11T06:19:35.925Z,27.03
2023-04-11T06:22:03.423Z,25.87
2023-04-11T06:24:39.118Z,26.35
2023-04-11T06:27:10.045Z,25.17
2023-04-11T06:29:38.664Z,27.40
2023-04-11T06:32:06.774Z,25.60
2023-04-11T06:34:34.523Z,27.37
2023-04-11T06:37:01.955Z,28.60
2023-04-11T06:39:29.345Z,28.58
2023-04-11T06:41:56.986Z,39.17
2023-04-11T06:44:24.826Z,31.85
2023-04-11T06:46:52.425Z,35.35
2023-04-11T06:49:20.778Z,30.25
2023-04-11T06:51:50.114Z,27.77
2023-04-11T06:54:18.223Z,33.85
2023-04-11T06:56:46.064Z,33.25
2023-04-11T06:59:14.062Z,29.05
2023-04-11T07:01:41.518Z,30.35
2023-04-11T07:04:09.473Z,26.77
2023-04-11T07:06:37.042Z,27.60
2023-04-11T07:09:05.067Z,25.75
2023-04-11T07:11:33.424Z,27.70
2023-04-11T07:14:01.393Z,26.17
2023-04-11T07:16:28.937Z,26.07
2023-04-11T07:18:57.539Z,25.10
2023-04-11T07:21:25.147Z,24.95
2023-04-11T07:23:53.553Z,24.00
2023-04-11T07:26:23.905Z,24.42
2023-04-11T07:28:51.370Z,23.10
2023-04-11T07:31:21.555Z,21.62
2023-04-11T07:33:49.637Z,20.43
2023-04-11T07:36:17.663Z,20.27
2023-04-11T07:38:45.344Z,20.52
2023-04-11T07:41:13.164Z,21.67
2023-04-11T07:43:40.760Z,20.98
2023-04-11T07:46:08.225Z,18.87
2023-04-11T07:48:35.982Z,23.00
2023-04-11T07:51:03.348Z,20.60
2023-04-11T07:53:33.240Z,23.12
2023-04-11T07:56:01.529Z,21.10
2023-04-11T07:58:30.146Z,21.57
2023-04-11T08:00:58.614Z,20.40
2023-04-11T08:03:27.180Z,21.45
2023-04-11T08:05:55.037Z,21.77
2023-04-11T08:08:22.626Z,20.37
2023-04-11T08:10:52.227Z,18.08
2023-04-11T08:13:19.800Z,20.83
2023-04-11T08:15:47.236Z,20.37
2023-04-11T08:18:16.349Z,20.65
2023-04-11T08:20:43.907Z,21.42
2023-04-11T08:23:11.574Z,20.58
2023-04-11T08:25:39.267Z,21.15
2023-04-11T08:28:06.956Z,20.10
2023-04-11T08:30:34.330Z,23.75
2023-04-11T08:33:02.205Z,20.37
2023-04-11T08:35:29.856Z,22.00
2023-04-11T08:37:57.350Z,22.80
2023-04-11T08:40:26.985Z,24.67
2023-04-11T08:43:00.856Z,24.40
2023-04-11T08:45:29.327Z,23.23
2023-04-11T08:47:56.787Z,24.02
2023-04-11T08:50:24.415Z,26.65
2023-04-11T08:52:52.862Z,24.45
2023-04-11T08:55:20.400Z,25.33
2023-04-11T08:57:48.022Z,26.33
2023-04-11T09:00:19.159Z,27.33
2023-04-11T09:03:04.831Z,29.50
2023-04-11T09:05:38.732Z,27.77
2023-04-11T09:08:14.432Z,28.05
2023-04-11T09:10:47.738Z,28.92
2023-04-11T09:13:25.988Z,28.98
2023-04-11T09:16:06.156Z,27.02
2023-04-11T09:18:34.431Z,29.10
2023-04-11T09:21:04.932Z,29.27
2023-04-11T09:23:32.437Z,29.83
2023-04-11T09:26:00.189Z,29.90
2023-04-11T09:28:28.106Z,30.80
2023-04-11T09:30:56.419Z,30.60
2023-04-11T09:33:26.169Z,32.10
2023-04-11T09:35:55.709Z,29.70
2023-04-11T09:38:33.115Z,29.57
2023-04-11T09:41:02.401Z,27.03
2023-04-11T09:43:59.529Z,28.33
2023-04-11T09:46:27.357Z,28.38
2023-04-11T09:48:56.175Z,24.17
2023-04-11T09:51:35.679Z,24.33
2023-04-11T09:54:05.511Z,23.63
2023-04-11T09:56:36.702Z,24.30
2023-04-11T09:59:05.264Z,22.73
2023-04-11T10:01:33.299Z,22.17
2023-04-11T10:04:01.689Z,23.23
2023-04-11T10:07:09.142Z,22.07
2023-04-11T10:09:42.167Z,22.48
2023-04-11T10:12:09.617Z,22.35
2023-04-11T10:14:41.818Z,24.20
2023-04-11T10:17:23.410Z,29.07
2023-04-11T10:19:56.720Z,28.25
2023-04-11T10:22:46.583Z,26.45
2023-04-11T10:25:18.778Z,25.48
2023-04-11T10:27:50.107Z,26.37
2023-04-11T10:30:17.874Z,21.27
2023-04-11T10:33:13.905Z,27.15
2023-04-11T10:36:12.790Z,25.62
2023-04-11T10:38:41.003Z,25.90
2023-04-11T10:41:17.565Z,22.52
2023-04-11T10:43:46.025Z,23.17
2023-04-11T10:46:32.093Z,26.33
2023-04-11T10:49:04.600Z,23.42
2023-04-11T10:51:33.147Z,23.15
2023-04-11T10:54:01.048Z,19.98
2023-04-11T10:56:45.445Z,22.48
2023-04-11T10:59:31.507Z,22.98
2023-04-11T11:02:02.415Z,21.97
2023-04-11T11:04:35.014Z,17.77
2023-04-11T11:07:07.209Z,19.85
2023-04-11T11:09:35.456Z,21.83
2023-04-11T11:12:12.486Z,20.85
2023-04-11T11:14:41.673Z,19.10
2023-04-11T11:17:09.357Z,21.42
2023-04-11T11:19:36.841Z,16.92
2023-04-11T11:22:06.202Z,16.65
2023-04-11T11:24:33.671Z,16.27
2023-04-11T11:27:01.125Z,18.67
2023-04-11T11:29:34.664Z,18.08
2023-04-11T11:32:05.926Z,18.90
2023-04-11T11:34:35.282Z,17.47
2023-04-11T11:37:06.885Z,17.90
2023-04-11T11:39:35.444Z,17.45
2023-04-11T11:42:03.469Z,17.62
2023-04-11T11:44:31.345Z,18.83
2023-04-11T11:47:06.205Z,18.37
2023-04-11T11:49:47.520Z,18.77
2023-04-11T11:52:34.471Z,23.52
2023-04-11T11:55:03.340Z,21.42
2023-04-11T11:57:31.890Z,20.55
2023-04-11T12:00:01.484Z,19.45
2023-04-11T12:02:29.195Z,16.95
2023-04-11T12:05:00.941Z,14.55
2023-04-11T12:07:33.349Z,14.77
2023-04-11T12:10:02.212Z,15.27
2023-04-11T12:12:37.212Z,18.83
2023-04-11T12:15:17.984Z,18.15
2023-04-11T12:17:55.206Z,18.15
2023-04-11T12:20:23.992Z,17.80
2023-04-11T12:22:53.009Z,20.55
2023-04-11T12:25:21.904Z,20.40
2023-04-11T12:27:49.587Z,19.83
2023-04-11T12:30:17.334Z,16.33
2023-04-11T12:32:45.471Z,17.35
2023-04-11T12:35:13.358Z,15.35
2023-04-11T12:37:43.283Z,14.48
2023-04-11T12:40:12.270Z,12.45
2023-04-11T12:45:11.805Z,10.98
2023-04-11T12:47:39.386Z,14.45
2023-04-11T12:50:08.102Z,13.02
2023-04-11T12:52:36.621Z,11.87
2023-04-11T12:55:04.801Z,11.77
2023-04-11T12:57:33.862Z,12.40
2023-04-11T13:00:01.278Z,12.37
2023-04-11T13:02:31.238Z,12.37
2023-04-11T13:05:06.444Z,12.00
2023-04-11T13:07:34.998Z,12.32
2023-04-11T13:10:03.742Z,12.97
2023-04-11T13:12:31.481Z,11.38
2023-04-11T13:14:58.923Z,11.27
2023-04-11T13:17:26.733Z,13.00
2023-04-11T13:19:54.160Z,11.68
2023-04-11T13:22:21.548Z,11.02
2023-04-11T13:24:49.202Z,11.40
2023-04-11T13:27:16.685Z,12.83
2023-04-11T13:29:44.075Z,13.23
2023-04-11T13:32:11.790Z,11.43
2023-04-11T13:34:39.185Z,11.45
2023-04-11T13:37:06.780Z,11.68
2023-04-11T13:39:34.839Z,11.02
2023-04-11T13:42:02.418Z,10.32
2023-04-11T13:44:29.862Z,10.25
2023-04-11T13:46:57.566Z,10.48
2023-04-11T13:49:25.022Z,11.02
2023-04-11T13:51:52.422Z,10.10
2023-04-11T13:54:20.055Z,10.80
2023-04-11T13:56:47.433Z,10.15
2023-04-11T13:59:15.007Z,11.82
2023-04-11T14:01:43.019Z,9.60
2023-04-11T14:04:11.876Z,8.88
2023-04-11T14:06:39.732Z,7.72
2023-04-11T14:09:07.750Z,8.45
2023-04-11T14:11:35.758Z,7.35
2023-04-11T14:14:03.253Z,9.02
2023-04-11T14:16:30.640Z,9.57
2023-04-11T14:18:58.271Z,8.93
2023-04-11T14:23:56.422Z,9.13
2023-04-11T14:26:24.527Z,9.80
2023-04-11T14:28:51.894Z,8.40
2023-04-11T14:31:19.634Z,10.40
2023-04-11T14:33:49.012Z,8.27
2023-04-11T14:36:16.477Z,7.85
2023-04-11T14:38:43.881Z,8.57
2023-04-11T14:41:13.643Z,9.07
2023-04-11T14:43:41.271Z,9.10
2023-04-11T14:46:09.024Z,9.77
2023-04-11T14:48:36.882Z,9.52
2023-04-11T14:51:04.821Z,9.95
2023-04-11T14:53:32.530Z,10.70
2023-04-11T14:56:04.708Z,11.40
2023-04-11T14:58:32.721Z,11.10
2023-04-11T15:01:00.355Z,11.15
2023-04-11T15:03:28.038Z,12.48
2023-04-11T15:05:55.690Z,13.75
2023-04-11T15:08:23.307Z,13.73
2023-04-11T15:10:54.265Z,17.15
2023-04-11T15:13:22.856Z,16.12
2023-04-11T15:15:51.436Z,19.08
2023-04-11T15:18:20.409Z,18.30
2023-04-11T15:20:48.100Z,17.17
2023-04-11T15:23:16.386Z,19.17
2023-04-11T15:25:43.879Z,19.55
2023-04-11T15:28:11.376Z,17.50
2023-04-11T15:30:47.698Z,16.40
2023-04-11T15:33:16.204Z,20.12
2023-04-11T15:35:45.030Z,18.73
2023-04-11T15:38:13.759Z,19.12
2023-04-11T15:40:41.239Z,20.42
2023-04-11T15:43:09.140Z,22.15
2023-04-11T15:45:37.545Z,22.70
2023-04-11T15:48:05.588Z,22.95
2023-04-11T15:50:33.260Z,23.92
2023-04-11T15:53:00.663Z,22.80
2023-04-11T15:55:28.674Z,22.37
2023-04-11T15:57:56.925Z,21.90
2023-04-11T16:00:24.568Z,18.98
2023-04-11T16:02:52.478Z,15.38
2023-04-11T16:05:20.971Z,16.80
2023-04-11T16:07:48.864Z,16.30
2023-04-11T16:10:16.536Z,15.23
2023-04-11T16:12:43.936Z,13.45
2023-04-11T16:15:11.514Z,12.05
2023-04-11T16:17:39.386Z,13.70
2023-04-11T16:20:10.156Z,13.13
2023-04-11T16:22:39.640Z,14.80
2023-04-11T16:25:07.556Z,12.98
2023-04-11T16:27:35.049Z,12.90
2023-04-11T16:30:05.367Z,12.25
2023-04-11T16:32:32.789Z,11.25
2023-04-11T16:35:00.970Z,13.68
2023-04-11T16:37:28.718Z,13.62
2023-04-11T16:39:56.540Z,14.65
2023-04-11T16:42:24.032Z,16.00
2023-04-11T16:44:51.689Z,14.85
2023-04-11T16:47:20.513Z,15.77
2023-04-11T16:49:47.925Z,15.90
2023-04-11T16:52:15.593Z,17.83
2023-04-11T16:54:42.989Z,16.67
2023-04-11T16:57:10.419Z,16.83
2023-04-11T16:59:38.176Z,17.20
2023-04-11T17:02:05.847Z,16.45
2023-04-11T17:04:33.735Z,15.27
2023-04-11T17:07:01.625Z,15.75
2023-04-11T17:09:29.429Z,22.00
2023-04-11T17:11:57.758Z,22.33
2023-04-11T17:14:25.400Z,20.33
2023-04-11T17:16:53.335Z,20.15
2023-04-11T17:19:20.751Z,21.33
2023-04-11T17:21:48.373Z,19.62
2023-04-11T17:24:15.918Z,22.00
2023-04-11T17:26:43.337Z,21.50
2023-04-11T17:29:11.089Z,21.33
2023-04-11T17:31:38.561Z,20.88
2023-04-11T17:34:06.055Z,20.20
2023-04-11T17:36:33.687Z,21.17
2023-04-11T17:39:01.076Z,20.15
2023-04-11T17:41:28.512Z,23.52
2023-04-11T17:43:56.907Z,19.10
2023-04-11T17:46:24.673Z,19.70
2023-04-11T17:48:52.098Z,18.95
2023-04-11T17:51:19.778Z,17.73
2023-04-11T17:53:47.117Z,18.00
2023-04-11T17:56:14.899Z,18.17
2023-04-11T17:58:44.836Z,17.73
2023-04-11T18:01:12.859Z,16.33
2023-04-11T18:03:41.269Z,14.90
2023-04-11T18:06:08.966Z,13.98
2023-04-11T18:11:11.086Z,13.95
2023-04-11T18:13:38.651Z,11.43
2023-04-11T18:16:06.655Z,11.55
2023-04-11T18:18:34.641Z,9.07
2023-04-11T18:21:05.035Z,10.23
2023-04-11T18:23:35.692Z,9.65
2023-04-11T18:26:03.317Z,11.23
2023-04-11T18:28:30.769Z,10.27
2023-04-11T18:30:58.549Z,10.10
2023-04-11T18:33:26.990Z,9.23
2023-04-11T18:35:55.159Z,9.32
2023-04-11T18:38:23.070Z,11.50
2023-04-11T18:40:54.922Z,9.98
2023-04-11T18:43:25.672Z,10.82
2023-04-11T18:45:53.527Z,9.73
2023-04-11T18:48:21.533Z,10.10
2023-04-11T18:50:59.216Z,11.07
2023-04-11T18:53:28.567Z,10.63
2023-04-11T18:55:58.258Z,10.90
2023-04-11T18:58:28.332Z,13.07
2023-04-11T19:00:58.150Z,11.00
2023-04-11T19:03:26.860Z,11.73
2023-04-11T19:05:55.433Z,10.80
2023-04-11T19:08:24.200Z,10.15
2023-04-11T19:10:52.869Z,10.70
2023-04-11T19:13:21.091Z,9.18
2023-04-11T19:15:49.299Z,10.10
2023-04-11T19:18:17.635Z,9.30
2023-04-11T19:20:45.884Z,9.88
2023-04-11T19:23:14.668Z,9.40
2023-04-11T19:25:43.448Z,10.05
2023-04-11T19:28:11.753Z,9.65
2023-04-11T19:30:39.847Z,10.30
2023-04-11T19:33:09.207Z,9.88
2023-04-11T19:35:38.573Z,10.67
2023-04-11T19:38:08.421Z,10.65
2023-04-11T19:40:36.869Z,10.85
2023-04-11T19:43:04.989Z,9.63
2023-04-11T19:45:33.312Z,9.45
2023-04-11T19:48:03.296Z,10.20
2023-04-11T19:50:33.214Z,11.30
2023-04-11T19:53:01.682Z,10.27
2023-04-11T19:55:29.703Z,11.65
2023-04-11T19:57:58.207Z,12.75
2023-04-11T20:00:31.954Z,11.85
2023-04-11T20:03:06.364Z,10.70
2023-04-11T20:05:34.599Z,10.15
2023-04-11T20:08:03.512Z,10.93
2023-04-11T20:10:34.723Z,10.87
2023-04-11T20:13:06.174Z,10.37
2023-04-11T20:15:34.590Z,9.57
2023-04-11T20:18:03.145Z,10.45
2023-04-11T20:20:33.882Z,8.20
2023-04-11T20:23:05.406Z,6.97
2023-04-11T20:25:34.836Z,6.68
2023-04-11T20:28:03.518Z,5.40
2023-04-11T20:30:30.946Z,5.63
2023-04-11T20:32:58.429Z,5.13
2023-04-11T20:35:26.189Z,5.82
2023-04-11T20:37:54.125Z,6.95
2023-04-11T20:40:21.621Z,7.47
2023-04-11T20:42:49.559Z,5.20
2023-04-11T20:45:20.639Z,5.03
2023-04-11T20:47:49.756Z,5.07
2023-04-11T20:50:17.691Z,6.37
2023-04-11T20:52:46.902Z,6.50
2023-04-11T20:55:14.562Z,4.78
2023-04-11T20:57:42.378Z,5.60
2023-04-11T21:00:14.326Z,5.47
2023-04-11T21:02:44.168Z,5.57
2023-04-11T21:05:13.304Z,4.97
2023-04-11T21:07:42.058Z,6.50
2023-04-11T21:10:10.490Z,5.10
2023-04-11T21:12:38.197Z,4.50
2023-04-11T21:15:06.781Z,4.70
2023-04-11T21:17:35.576Z,5.20
2023-04-11T21:20:11.199Z,4.30
2023-04-11T21:22:40.280Z,4.97
2023-04-11T21:25:08.210Z,5.05
2023-04-11T21:27:35.652Z,4.53
2023-04-11T21:30:03.585Z,4.37
2023-04-11T21:32:31.018Z,4.87
2023-04-11T21:34:58.584Z,5.35
2023-04-11T21:37:26.335Z,3.70
2023-04-11T21:39:56.964Z,4.82
2023-04-11T21:42:24.411Z,5.00
2023-04-11T21:44:52.087Z,5.20
2023-04-11T21:47:19.653Z,5.80
2023-04-11T21:49:47.474Z,5.32
2023-04-11T21:52:15.393Z,4.55
2023-04-11T21:54:43.712Z,5.40
2023-04-11T21:57:11.259Z,5.15
2023-04-11T21:59:39.304Z,5.12
2023-04-11T22:02:06.961Z,5.23
2023-04-11T22:04:41.334Z,4.95
2023-04-11T22:07:15.121Z,4.62
2023-04-11T22:09:46.911Z,4.40
2023-04-11T22:12:17.703Z,4.03
2023-04-11T22:14:45.354Z,5.72
2023-04-11T22:17:13.106Z,5.90
2023-04-11T22:19:42.301Z,4.87
2023-04-11T22:22:10.211Z,6.93
2023-04-11T22:24:38.353Z,5.78
2023-04-11T22:27:10.329Z,6.22
2023-04-11T22:29:38.630Z,4.82
2023-04-11T22:32:06.269Z,5.80
2023-04-11T22:34:33.768Z,5.10
2023-04-11T22:37:01.470Z,4.62
2023-04-11T22:39:28.928Z,6.00
2023-04-11T22:41:56.306Z,5.82
2023-04-11T22:44:23.956Z,5.43
2023-04-11T22:47:13.647Z,4.78
2023-04-11T22:49:42.225Z,5.03
2023-04-11T22:52:15.020Z,4.57
2023-04-11T22:54:43.285Z,4.45
2023-04-11T22:57:10.713Z,4.18
2023-04-11T22:59:38.116Z,3.77
2023-04-11T23:02:06.548Z,4.55
2023-04-11T23:04:33.993Z,4.13
2023-04-11T23:07:01.439Z,4.60
2023-04-11T23:09:29.143Z,3.55
2023-04-11T23:11:56.601Z,4.82
2023-04-11T23:14:30.892Z,4.68
2023-04-11T23:16:58.599Z,3.78
2023-04-11T23:19:27.334Z,4.47
2023-04-11T23:21:55.566Z,4.70
2023-04-11T23:24:23.236Z,4.53
2023-04-11T23:26:50.834Z,5.28
2023-04-11T23:29:18.453Z,5.00
2023-04-11T23:31:46.112Z,4.18
2023-04-11T23:34:14.013Z,5.28
2023-04-11T23:36:42.150Z,3.75
2023-04-11T23:39:09.923Z,5.22
2023-04-11T23:41:37.377Z,6.18
2023-04-11T23:44:04.718Z,4.68
2023-04-11T23:46:32.436Z,4.75
2023-04-11T23:49:01.443Z,5.00
2023-04-11T23:51:28.849Z,6.10
2023-04-11T23:53:57.297Z,3.90
2023-04-11T23:56:24.867Z,4.87
2023-04-11T23:58:52.304Z,6.40
